Mc Cook Ben Nelson Regional Airport
KMCK : rendu visible

Aérodrome :











RETROUVEZ-NOUS SUR...

 
LOGIN :

S'inscrire | Disclaimer

   EN    FR    IT 

 









Légende :    VFR   VFR Marginal   IFR   IFR Intensif   IFR Très Intensif
Visi : 
Plafond : 
>= 8 km
>= 3000ft
5 à 8 km
1000 à 3000 ft
1500m à 5 km
500 à 1000 ft
800 à 1500m
200 à 500 ft
< 800m
< 200 ft
Symboles :   Orages  Brouillard  Fortes neiges  Fortes précipitations  Vent > 20 kt






- Altitude de l'aérodrome : 2583 ft


KMCK - Mc Cook Ben Nelson Regional

DERNIER METAR :
  • 041353Z AUTO 14004KT 10SM CLR 22/18 A3010 RMK AO2 SLP170 T02170178

METARs EXPIRÉS :
  • 041253Z AUTO 00000KT 10SM CLR 21/17 A3010 RMK AO2 SLP168 T02060167
  • 041153Z AUTO 00000KT 10SM CLR 18/16 A3007 RMK AO2 SLP156 T01780161 10222 20172 55007

TAF KMCK
Valide du 04 à 12h jusqu'au 05 à 12h UTC


041121Z 0412/0512 VRB04KT P6SM SCT280
FM041600 14007KT P6SM SCT280
FM042300 11010KT P6SM FEW050
FM050800 VRB05KT P6SM BKN280
FIR KZDV / Amérique du Nord



MET'MAP, la Météo Aéronautique d'un coup d'oeil ! - Copyright ORBIFLY Décembre 2007 - Disclaimer

ORBIFLY MET'MAP TEAM :

Programmation & Développement : Alexandra Zaïnal
Sur une idée originale de : Baudouin d'Aumeries
Assistance à la programmation : Marc-Olivier Méhu
Soutien technique & logistique : Manuel Goepfert

Contact : metmap@orbifly.com




SOURCES & CREDITS :

   NOAA       Earth
Advisory